Time;durP1;ratioP1;P1;durP2;ratioP2;P2;SDS_P1;SDS_P2;PMS_P1;PMS_P2;Temp;Humidity;BMP_temperature;BMP_pressure;BME280_temperature;BME280_humidity;BME280_pressure;Samples;Min_cycle;Max_cycle;Signal;HPM_P1;HPM_P2
2022/07/11 00:01:43;;;;;;;0.97;0.70;;;;;;;;;;5101150;28;20216;-59
2022/07/11 00:04:11;;;;;;;1.10;1.00;;;;;;;;;;5100689;28;20232;-59
2022/07/11 00:06:39;;;;;;;1.03;0.90;;;;;;;;;;5100794;28;20215;-59
2022/07/11 00:09:08;;;;;;;1.57;0.87;;;;;;;;;;5100561;28;20302;-59
2022/07/11 00:11:36;;;;;;;1.67;0.67;;;;;;;;;;5100525;28;20595;-59
2022/07/11 00:14:04;;;;;;;1.33;0.63;;;;;;;;;;5100604;28;20267;-59
2022/07/11 00:16:32;;;;;;;0.90;0.60;;;;;;;;;;5100402;28;20692;-59
2022/07/11 00:19:00;;;;;;;1.00;0.80;;;;;;;;;;5100235;28;20665;-59
2022/07/11 00:21:28;;;;;;;0.97;0.80;;;;;;;;;;5099953;28;20292;-59
2022/07/11 00:23:56;;;;;;;2.40;1.30;;;;;;;;;;5100138;28;20228;-58
2022/07/11 00:26:26;;;;;;;0.90;0.70;;;;;;;;;;5100269;28;20232;-58
2022/07/11 00:28:54;;;;;;;0.90;0.80;;;;;;;;;;5087095;28;20205;-58
2022/07/11 00:31:22;;;;;;;1.10;0.80;;;;;;;;;;5100067;28;20653;-58
2022/07/11 00:33:50;;;;;;;1.30;0.87;;;;;;;;;;5099937;28;20221;-59
2022/07/11 00:36:18;;;;;;;2.00;0.93;;;;;;;;;;5099688;28;20255;-58
2022/07/11 00:38:46;;;;;;;2.03;0.80;;;;;;;;;;5099910;28;20244;-59
2022/07/11 00:41:14;;;;;;;0.70;0.70;;;;;;;;;;5099592;28;20209;-58
2022/07/11 00:43:44;;;;;;;2.30;0.90;;;;;;;;;;5100024;28;20269;-60
2022/07/11 00:46:12;;;;;;;1.67;0.73;;;;;;;;;;5099919;28;20203;-59
2022/07/11 00:48:40;;;;;;;0.70;0.70;;;;;;;;;;5099955;28;20262;-60
2022/07/11 00:51:08;;;;;;;0.90;0.80;;;;;;;;;;5099596;28;20209;-58
2022/07/11 00:53:36;;;;;;;1.23;0.70;;;;;;;;;;5099817;28;20250;-58
2022/07/11 00:56:04;;;;;;;2.30;0.93;;;;;;;;;;5099469;28;20315;-58
2022/07/11 00:58:33;;;;;;;2.93;0.93;;;;;;;;;;5099860;28;20208;-59
2022/07/11 01:01:02;;;;;;;4.17;0.77;;;;;;;;;;5099777;28;20234;-61
2022/07/11 01:03:30;;;;;;;4.83;2.50;;;;;;;;;;5099775;28;20231;-58
2022/07/11 01:05:58;;;;;;;0.87;0.87;;;;;;;;;;5099316;28;20241;-59
2022/07/11 01:08:31;;;;;;;0.90;0.90;;;;;;;;;;5099716;28;20286;-60
2022/07/11 01:11:00;;;;;;;1.80;0.83;;;;;;;;;;5099305;28;20659;-60
2022/07/11 01:13:28;;;;;;;1.70;0.90;;;;;;;;;;5099463;28;20267;-59
2022/07/11 01:16:09;;;;;;;2.23;1.07;;;;;;;;;;5099541;28;20239;-60
2022/07/11 01:18:37;;;;;;;1.63;0.73;;;;;;;;;;5099402;28;20203;-60
2022/07/11 01:21:07;;;;;;;2.43;1.10;;;;;;;;;;5099008;28;20294;-61
2022/07/11 01:23:37;;;;;;;1.33;0.93;;;;;;;;;;5099122;28;20231;-60
2022/07/11 01:26:05;;;;;;;1.23;0.83;;;;;;;;;;5098795;28;20198;-60
2022/07/11 01:28:33;;;;;;;2.30;1.10;;;;;;;;;;5099247;28;20229;-60
2022/07/11 01:31:01;;;;;;;5.30;1.13;;;;;;;;;;5099229;28;20242;-59
2022/07/11 01:33:32;;;;;;;2.90;1.20;;;;;;;;;;5099082;28;20229;-59
2022/07/11 01:36:01;;;;;;;1.30;1.00;;;;;;;;;;5098554;28;20700;-59
2022/07/11 01:38:29;;;;;;;1.40;0.90;;;;;;;;;;5098679;28;20237;-59
2022/07/11 01:40:58;;;;;;;4.13;1.40;;;;;;;;;;5083718;28;20208;-60
2022/07/11 01:43:26;;;;;;;1.13;0.80;;;;;;;;;;5097508;28;20226;-59
2022/07/11 01:45:54;;;;;;;1.30;1.00;;;;;;;;;;5098828;28;20237;-57
2022/07/11 01:48:22;;;;;;;0.90;0.90;;;;;;;;;;5098447;28;20209;-59
2022/07/11 01:50:51;;;;;;;1.50;1.10;;;;;;;;;;5098436;28;20241;-58
2022/07/11 01:53:19;;;;;;;1.57;0.87;;;;;;;;;;5097675;28;20692;-57
2022/07/11 01:55:47;;;;;;;1.23;1.00;;;;;;;;;;5099517;28;20654;-59
2022/07/11 01:58:36;;;;;;;4.47;1.00;;;;;;;;;;5095185;28;20225;-57
2022/07/11 02:01:04;;;;;;;1.03;0.93;;;;;;;;;;5097465;28;20711;-57
2022/07/11 02:03:32;;;;;;;2.40;1.20;;;;;;;;;;5098145;28;20217;-57
2022/07/11 02:06:00;;;;;;;5.80;1.10;;;;;;;;;;5097656;28;20199;-58
2022/07/11 02:08:28;;;;;;;0.80;0.80;;;;;;;;;;5092204;28;20255;-57
2022/07/11 02:10:56;;;;;;;1.13;1.03;;;;;;;;;;5097516;28;20204;-57
2022/07/11 02:13:24;;;;;;;1.73;0.93;;;;;;;;;;5094158;28;20248;-57
2022/07/11 02:15:54;;;;;;;1.80;1.10;;;;;;;;;;5117022;28;20213;-57
2022/07/11 02:18:22;;;;;;;1.17;1.07;;;;;;;;;;5116508;28;20236;-57
2022/07/11 02:20:50;;;;;;;0.83;0.80;;;;;;;;;;5116239;28;20298;-58
2022/07/11 02:23:18;;;;;;;1.00;1.00;;;;;;;;;;5112038;28;20275;-59
2022/07/11 02:25:47;;;;;;;0.83;0.83;;;;;;;;;;5097052;28;20208;-58
2022/07/11 02:28:15;;;;;;;3.30;0.90;;;;;;;;;;5098111;28;20213;-59
2022/07/11 02:30:44;;;;;;;5.20;1.73;;;;;;;;;;5098266;28;20205;-58
2022/07/11 02:33:15;;;;;;;1.50;0.90;;;;;;;;;;5098020;28;20224;-58
2022/07/11 02:35:44;;;;;;;1.07;0.93;;;;;;;;;;5097692;28;20662;-58
2022/07/11 02:38:12;;;;;;;2.60;1.20;;;;;;;;;;5097698;28;20728;-58
2022/07/11 02:40:40;;;;;;;1.60;1.30;;;;;;;;;;5097711;28;20215;-58
2022/07/11 02:43:08;;;;;;;1.13;0.70;;;;;;;;;;5097588;28;20253;-58
2022/07/11 02:45:36;;;;;;;0.93;0.90;;;;;;;;;;5098099;28;20258;-57
2022/07/11 02:48:05;;;;;;;2.57;0.90;;;;;;;;;;5097713;28;20751;-57
2022/07/11 02:50:35;;;;;;;2.27;0.77;;;;;;;;;;5097443;28;20266;-57
2022/07/11 02:53:03;;;;;;;0.83;0.83;;;;;;;;;;5097502;28;20248;-57
2022/07/11 02:55:31;;;;;;;1.53;1.10;;;;;;;;;;5097843;28;20248;-58
2022/07/11 02:57:59;;;;;;;1.80;1.00;;;;;;;;;;5097299;28;20229;-57
2022/07/11 03:00:27;;;;;;;1.57;1.00;;;;;;;;;;5097641;28;20252;-57
2022/07/11 03:02:55;;;;;;;0.90;0.90;;;;;;;;;;5097868;28;20206;-58
2022/07/11 03:05:24;;;;;;;1.70;0.90;;;;;;;;;;5097290;28;20233;-59
2022/07/11 03:07:53;;;;;;;2.63;1.10;;;;;;;;;;5097739;28;20229;-58
2022/07/11 03:10:23;;;;;;;1.67;0.97;;;;;;;;;;5097360;28;20237;-58
2022/07/11 03:12:51;;;;;;;1.57;1.00;;;;;;;;;;5097658;28;20208;-58
2022/07/11 03:15:19;;;;;;;1.13;0.80;;;;;;;;;;5097588;28;20210;-57
2022/07/11 03:17:48;;;;;;;1.27;1.00;;;;;;;;;;5097597;28;20268;-57
2022/07/11 03:20:16;;;;;;;1.50;1.10;;;;;;;;;;5097133;28;20289;-58
2022/07/11 03:22:44;;;;;;;3.83;1.10;;;;;;;;;;5097617;28;20253;-57
2022/07/11 03:25:13;;;;;;;1.47;0.90;;;;;;;;;;5097110;28;20241;-59
2022/07/11 03:27:41;;;;;;;2.53;1.00;;;;;;;;;;5097309;28;20786;-58
2022/07/11 03:30:10;;;;;;;3.40;0.80;;;;;;;;;;5097359;28;20210;-58
2022/07/11 03:32:38;;;;;;;0.80;0.80;;;;;;;;;;5100153;28;20254;-57
2022/07/11 03:37:52;;;;;;;0.97;0.83;;;;;;;;;;5100969;28;20266;-57
2022/07/11 03:40:22;;;;;;;3.07;1.10;;;;;;;;;;5100954;28;20201;-57
2022/07/11 03:42:50;;;;;;;3.53;1.10;;;;;;;;;;5100884;28;20234;-57
2022/07/11 03:45:18;;;;;;;1.33;0.97;;;;;;;;;;5100643;28;20732;-58
2022/07/11 03:47:47;;;;;;;4.83;1.97;;;;;;;;;;5100809;28;20208;-58
2022/07/11 03:50:16;;;;;;;1.90;0.87;;;;;;;;;;5100435;28;20721;-58
2022/07/11 03:52:44;;;;;;;2.80;1.30;;;;;;;;;;5102257;28;20243;-58
2022/07/11 03:55:12;;;;;;;1.63;0.67;;;;;;;;;;5100470;28;20204;-58
2022/07/11 03:57:42;;;;;;;1.63;0.80;;;;;;;;;;5102312;28;20221;-57
2022/07/11 04:00:11;;;;;;;1.30;0.80;;;;;;;;;;5100154;28;20242;-58
2022/07/11 04:02:38;;;;;;;1.40;0.97;;;;;;;;;;5100400;28;20249;-58
2022/07/11 04:05:07;;;;;;;1.33;0.83;;;;;;;;;;5101459;28;20563;-58
2022/07/11 04:07:36;;;;;;;1.10;0.80;;;;;;;;;;5102595;28;20200;-58
2022/07/11 04:10:04;;;;;;;2.07;1.00;;;;;;;;;;5100067;28;20198;-58
2022/07/11 04:12:32;;;;;;;2.07;0.83;;;;;;;;;;5100581;28;20236;-58
2022/07/11 04:15:01;;;;;;;1.97;1.13;;;;;;;;;;5100194;28;20222;-59
2022/07/11 04:17:30;;;;;;;2.53;1.03;;;;;;;;;;5101155;28;20676;-58
2022/07/11 04:19:57;;;;;;;2.00;0.87;;;;;;;;;;5113460;28;20625;-58
2022/07/11 04:22:26;;;;;;;2.43;0.87;;;;;;;;;;5107417;28;20566;-58
2022/07/11 04:24:54;;;;;;;2.40;0.70;;;;;;;;;;5099601;28;20218;-58
2022/07/11 04:27:24;;;;;;;2.67;1.07;;;;;;;;;;5099431;28;20198;-58
2022/07/11 04:29:57;;;;;;;3.30;0.80;;;;;;;;;;5098930;28;20202;-58
2022/07/11 04:32:27;;;;;;;1.43;0.80;;;;;;;;;;5101405;28;20251;-58
2022/07/11 04:34:55;;;;;;;1.03;0.90;;;;;;;;;;5102709;28;20218;-59
2022/07/11 04:37:26;;;;;;;1.33;0.90;;;;;;;;;;5100135;28;20206;-58
2022/07/11 04:39:53;;;;;;;0.90;0.90;;;;;;;;;;5099902;28;20230;-59
2022/07/11 04:42:22;;;;;;;1.33;0.80;;;;;;;;;;5110481;28;20837;-58
2022/07/11 04:44:50;;;;;;;1.80;0.97;;;;;;;;;;5120049;28;20276;-58
2022/07/11 04:47:19;;;;;;;1.27;0.97;;;;;;;;;;5120453;28;20213;-58
2022/07/11 04:49:50;;;;;;;3.93;1.13;;;;;;;;;;5119598;28;20233;-58
2022/07/11 04:52:18;;;;;;;1.30;0.90;;;;;;;;;;5120187;28;20227;-58
2022/07/11 04:54:46;;;;;;;1.83;1.20;;;;;;;;;;5120139;28;20230;-58
2022/07/11 04:57:14;;;;;;;3.43;1.23;;;;;;;;;;5120101;28;20206;-59
2022/07/11 04:59:42;;;;;;;2.37;1.30;;;;;;;;;;5120064;28;20262;-60
2022/07/11 05:02:10;;;;;;;1.60;1.07;;;;;;;;;;5120039;28;20238;-59
2022/07/11 05:04:38;;;;;;;3.47;1.30;;;;;;;;;;5119799;28;20231;-59
2022/07/11 05:07:07;;;;;;;0.90;0.90;;;;;;;;;;5119842;28;20207;-58
2022/07/11 05:09:35;;;;;;;1.90;0.90;;;;;;;;;;5119686;28;20703;-58
2022/07/11 05:12:04;;;;;;;1.07;0.80;;;;;;;;;;5119683;28;20240;-58
2022/07/11 05:14:32;;;;;;;2.90;0.80;;;;;;;;;;5119555;28;20228;-58
2022/07/11 05:17:00;;;;;;;2.27;1.10;;;;;;;;;;5119450;28;20244;-59
2022/07/11 05:19:28;;;;;;;2.40;1.10;;;;;;;;;;5118738;28;20713;-59
2022/07/11 05:21:56;;;;;;;0.80;0.80;;;;;;;;;;5119355;28;20645;-59
2022/07/11 05:24:25;;;;;;;2.43;1.37;;;;;;;;;;5104484;28;20591;-58
2022/07/11 05:26:53;;;;;;;1.93;0.93;;;;;;;;;;5098949;28;20238;-59
2022/07/11 05:29:22;;;;;;;2.23;1.00;;;;;;;;;;5099357;28;20208;-58
2022/07/11 05:31:52;;;;;;;1.20;1.10;;;;;;;;;;5098608;28;20235;-58
2022/07/11 05:34:21;;;;;;;1.50;1.40;;;;;;;;;;5098687;28;20214;-58
2022/07/11 05:36:49;;;;;;;0.87;0.87;;;;;;;;;;5099024;28;20206;-59
2022/07/11 05:39:17;;;;;;;5.77;1.20;;;;;;;;;;5098687;28;20713;-58
2022/07/11 05:41:46;;;;;;;1.13;0.90;;;;;;;;;;5096687;28;20208;-58
2022/07/11 05:44:14;;;;;;;2.90;0.83;;;;;;;;;;5085090;28;20645;-58
2022/07/11 05:46:42;;;;;;;1.37;1.00;;;;;;;;;;5098231;28;20251;-57
2022/07/11 05:49:10;;;;;;;1.53;1.00;;;;;;;;;;5098545;28;20241;-58
2022/07/11 05:51:38;;;;;;;1.80;1.00;;;;;;;;;;5098232;28;20247;-58
2022/07/11 05:54:06;;;;;;;2.53;1.23;;;;;;;;;;5097941;28;20225;-58
2022/07/11 05:56:35;;;;;;;2.37;1.03;;;;;;;;;;5098268;28;20206;-58
2022/07/11 05:59:04;;;;;;;1.80;0.87;;;;;;;;;;5098751;28;20248;-58
2022/07/11 06:01:32;;;;;;;3.53;1.10;;;;;;;;;;5098478;28;20214;-58
2022/07/11 06:04:04;;;;;;;1.07;1.00;;;;;;;;;;5098111;28;20256;-58
2022/07/11 06:06:32;;;;;;;2.97;1.10;;;;;;;;;;5096598;28;20210;-58
2022/07/11 06:09:00;;;;;;;3.77;1.27;;;;;;;;;;5098170;28;20648;-57
2022/07/11 06:11:28;;;;;;;3.83;1.00;;;;;;;;;;5098250;28;20233;-58
2022/07/11 06:13:56;;;;;;;6.93;2.10;;;;;;;;;;5096162;28;20221;-62
2022/07/11 06:16:29;;;;;;;4.97;1.40;;;;;;;;;;5096063;28;20572;-61
2022/07/11 06:18:57;;;;;;;1.80;1.43;;;;;;;;;;5094676;28;20225;-62
2022/07/11 06:21:26;;;;;;;2.70;1.50;;;;;;;;;;5094284;28;20206;-60
2022/07/11 06:23:54;;;;;;;4.10;1.20;;;;;;;;;;5096074;28;20256;-61
2022/07/11 06:26:22;;;;;;;3.00;1.07;;;;;;;;;;5088804;28;20202;-60
2022/07/11 06:28:50;;;;;;;3.77;1.20;;;;;;;;;;5097104;28;20627;-59
2022/07/11 06:31:18;;;;;;;3.07;1.13;;;;;;;;;;5097788;28;20260;-60
2022/07/11 06:33:54;;;;;;;2.53;0.80;;;;;;;;;;5097948;28;20776;-59
2022/07/11 06:36:24;;;;;;;1.40;1.00;;;;;;;;;;5096253;28;20209;-59
2022/07/11 06:38:52;;;;;;;1.27;1.17;;;;;;;;;;5096942;28;20217;-59
2022/07/11 06:41:20;;;;;;;0.90;0.90;;;;;;;;;;5096826;28;20337;-59
2022/07/11 06:43:48;;;;;;;2.20;1.00;;;;;;;;;;5092024;28;20692;-60
2022/07/11 06:46:16;;;;;;;2.90;1.40;;;;;;;;;;5097557;28;20205;-60
2022/07/11 06:48:45;;;;;;;2.90;1.03;;;;;;;;;;5099251;28;20293;-60
2022/07/11 06:51:15;;;;;;;2.97;0.80;;;;;;;;;;5117893;28;20223;-60
2022/07/11 06:53:43;;;;;;;2.30;1.07;;;;;;;;;;5112356;28;20233;-60
2022/07/11 06:56:11;;;;;;;2.37;1.13;;;;;;;;;;5084495;28;20216;-60
2022/07/11 06:58:39;;;;;;;2.43;1.03;;;;;;;;;;5091973;28;20676;-60
2022/07/11 07:01:08;;;;;;;1.10;1.10;;;;;;;;;;5090529;28;20221;-59
2022/07/11 07:03:37;;;;;;;1.63;1.40;;;;;;;;;;5099861;28;20225;-60
2022/07/11 07:06:06;;;;;;;1.73;1.00;;;;;;;;;;5094570;28;20212;-60
2022/07/11 07:08:35;;;;;;;3.00;1.57;;;;;;;;;;5091923;28;20205;-59
2022/07/11 07:11:04;;;;;;;1.13;0.83;;;;;;;;;;5100792;28;20200;-59
2022/07/11 07:13:36;;;;;;;4.93;1.20;;;;;;;;;;5100719;28;20217;-59
2022/07/11 07:16:04;;;;;;;1.10;1.03;;;;;;;;;;5094394;28;20220;-61
2022/07/11 07:18:32;;;;;;;1.73;1.63;;;;;;;;;;5098305;28;20276;-60
2022/07/11 07:21:00;;;;;;;1.60;1.10;;;;;;;;;;5100877;28;20228;-59
2022/07/11 07:23:28;;;;;;;3.50;1.20;;;;;;;;;;5100735;28;20247;-59
2022/07/11 07:25:58;;;;;;;2.23;1.33;;;;;;;;;;5089655;28;20614;-59
2022/07/11 07:28:28;;;;;;;5.83;1.20;;;;;;;;;;5099213;28;20209;-59
2022/07/11 07:30:56;;;;;;;4.77;1.30;;;;;;;;;;5112638;28;20265;-60
2022/07/11 07:33:24;;;;;;;1.33;1.00;;;;;;;;;;5119718;28;20281;-60
2022/07/11 07:36:11;;;;;;;2.57;1.17;;;;;;;;;;5096633;28;20667;-62
2022/07/11 07:38:39;;;;;;;8.70;1.50;;;;;;;;;;5098962;28;20254;-60
2022/07/11 07:41:09;;;;;;;1.80;1.00;;;;;;;;;;5101004;28;20221;-59
2022/07/11 07:43:36;;;;;;;1.80;1.20;;;;;;;;;;5100579;28;20231;-61
2022/07/11 07:46:05;;;;;;;2.53;0.90;;;;;;;;;;5101983;28;20203;-60
2022/07/11 07:48:33;;;;;;;1.80;0.90;;;;;;;;;;5100372;28;20693;-60
2022/07/11 07:51:01;;;;;;;2.33;1.10;;;;;;;;;;5103021;28;20201;-60
2022/07/11 07:53:29;;;;;;;2.20;1.20;;;;;;;;;;5100539;28;20219;-59
2022/07/11 07:55:57;;;;;;;2.73;1.80;;;;;;;;;;5100807;28;20310;-59
2022/07/11 07:58:26;;;;;;;1.07;0.90;;;;;;;;;;5099919;28;20211;-60
2022/07/11 08:03:48;;;;;;;3.67;1.00;;;;;;;;;;5082396;28;20249;-59
2022/07/11 08:06:16;;;;;;;2.93;1.27;;;;;;;;;;5099886;28;20224;-60
2022/07/11 08:08:44;;;;;;;1.67;1.20;;;;;;;;;;5098287;28;20232;-60
2022/07/11 08:11:12;;;;;;;0.93;0.93;;;;;;;;;;5100500;28;20581;-61
2022/07/11 08:13:59;;;;;;;1.87;1.10;;;;;;;;;;5100266;28;20877;-62
2022/07/11 08:16:29;;;;;;;3.00;1.10;;;;;;;;;;5097569;28;20209;-62
2022/07/11 08:18:59;;;;;;;1.33;1.00;;;;;;;;;;5101169;28;20201;-61
2022/07/11 08:21:27;;;;;;;1.73;0.93;;;;;;;;;;5099535;28;20266;-59
2022/07/11 08:23:56;;;;;;;2.40;1.17;;;;;;;;;;5099485;28;20223;-59
2022/07/11 08:26:24;;;;;;;2.10;1.30;;;;;;;;;;5095027;28;20214;-61
2022/07/11 08:29:01;;;;;;;6.00;1.30;;;;;;;;;;5097049;28;20197;-62
2022/07/11 08:31:29;;;;;;;4.57;1.40;;;;;;;;;;5099451;28;20614;-61
2022/07/11 08:33:58;;;;;;;3.97;1.37;;;;;;;;;;5100842;28;20242;-62
2022/07/11 08:36:29;;;;;;;2.57;1.30;;;;;;;;;;5099217;28;20208;-60
2022/07/11 08:38:59;;;;;;;2.53;0.90;;;;;;;;;;5099532;28;20250;-59
2022/07/11 08:41:27;;;;;;;1.97;1.20;;;;;;;;;;5095093;28;20266;-59
2022/07/11 08:43:55;;;;;;;2.37;1.20;;;;;;;;;;5099792;28;20280;-60
2022/07/11 08:46:25;;;;;;;4.73;1.47;;;;;;;;;;5115796;28;20204;-60
2022/07/11 08:48:54;;;;;;;4.50;1.77;;;;;;;;;;5119874;28;20241;-59
2022/07/11 08:51:23;;;;;;;2.33;1.13;;;;;;;;;;5120202;28;20238;-59
2022/07/11 08:53:51;;;;;;;1.83;1.27;;;;;;;;;;5118937;28;20225;-59
2022/07/11 08:56:21;;;;;;;4.73;1.60;;;;;;;;;;5084318;28;20234;-60
2022/07/11 08:58:50;;;;;;;3.23;1.30;;;;;;;;;;5098034;28;20647;-60
2022/07/11 09:01:27;;;;;;;3.00;1.27;;;;;;;;;;5097983;28;20224;-59
2022/07/11 09:03:55;;;;;;;1.77;1.10;;;;;;;;;;5097434;28;20361;-59
2022/07/11 09:06:24;;;;;;;2.93;1.30;;;;;;;;;;5098396;28;20214;-59
2022/07/11 09:08:52;;;;;;;2.50;1.20;;;;;;;;;;5099191;28;20211;-59
2022/07/11 09:11:20;;;;;;;3.63;1.23;;;;;;;;;;5099676;28;20251;-61
2022/07/11 09:13:48;;;;;;;2.93;1.40;;;;;;;;;;5099182;28;20281;-59
2022/07/11 09:16:18;;;;;;;2.20;1.30;;;;;;;;;;5094163;28;20646;-59
2022/07/11 09:18:48;;;;;;;3.07;1.40;;;;;;;;;;5099100;28;20297;-59
2022/07/11 09:26:48;;;;;;;2.33;1.20;;;;;;;;;;5098970;28;20209;-59
2022/07/11 09:29:17;;;;;;;1.33;1.23;;;;;;;;;;5097924;28;20655;-59
2022/07/11 09:31:45;;;;;;;1.40;1.17;;;;;;;;;;5099113;28;20228;-59
2022/07/11 09:34:15;;;;;;;4.43;1.17;;;;;;;;;;5098485;28;20581;-59
2022/07/11 09:36:44;;;;;;;1.90;1.33;;;;;;;;;;5098795;28;20670;-59
2022/07/11 09:39:13;;;;;;;1.43;1.30;;;;;;;;;;5098840;28;20578;-59
2022/07/11 09:41:41;;;;;;;2.43;0.97;;;;;;;;;;5098792;28;20234;-59
2022/07/11 09:44:14;;;;;;;2.30;1.50;;;;;;;;;;5098823;28;20226;-59
2022/07/11 09:46:42;;;;;;;4.80;1.17;;;;;;;;;;5099038;28;20254;-59
2022/07/11 09:49:11;;;;;;;2.80;1.30;;;;;;;;;;5098207;28;20238;-59
2022/07/11 09:51:41;;;;;;;2.00;1.20;;;;;;;;;;5098937;28;20235;-59
2022/07/11 09:54:09;;;;;;;3.07;1.17;;;;;;;;;;5098339;28;20224;-59
2022/07/11 09:56:41;;;;;;;1.67;1.10;;;;;;;;;;5098405;28;20613;-59
2022/07/11 09:59:25;;;;;;;3.23;1.17;;;;;;;;;;5098480;28;20243;-59
2022/07/11 10:01:52;;;;;;;3.70;1.20;;;;;;;;;;5098228;28;20227;-59
2022/07/11 10:04:22;;;;;;;3.00;1.30;;;;;;;;;;5097798;28;20717;-59
2022/07/11 10:06:52;;;;;;;2.97;1.33;;;;;;;;;;5098126;28;20258;-59
2022/07/11 10:09:20;;;;;;;1.17;1.00;;;;;;;;;;5098249;28;20685;-59
2022/07/11 10:11:48;;;;;;;2.27;1.20;;;;;;;;;;5098163;28;20248;-59
2022/07/11 10:14:16;;;;;;;3.70;1.20;;;;;;;;;;5098327;28;20261;-58
2022/07/11 10:16:53;;;;;;;2.57;1.30;;;;;;;;;;5097954;28;20616;-58
2022/07/11 10:19:30;;;;;;;1.60;1.30;;;;;;;;;;5098152;28;20203;-59
2022/07/11 10:22:06;;;;;;;4.70;1.30;;;;;;;;;;5097878;28;20269;-58
2022/07/11 10:24:45;;;;;;;1.43;1.10;;;;;;;;;;5097884;28;20267;-59
2022/07/11 10:27:17;;;;;;;2.73;1.40;;;;;;;;;;5098209;28;20209;-59
2022/07/11 10:29:48;;;;;;;4.27;1.40;;;;;;;;;;5097988;28;20258;-58
2022/07/11 10:32:16;;;;;;;1.50;1.30;;;;;;;;;;5097895;28;20231;-59
2022/07/11 10:34:44;;;;;;;2.33;1.17;;;;;;;;;;5097379;28;20263;-58
2022/07/11 10:37:14;;;;;;;3.73;1.10;;;;;;;;;;5097785;28;20677;-59
2022/07/11 10:39:58;;;;;;;2.30;1.10;;;;;;;;;;5097983;28;20210;-58
2022/07/11 10:42:38;;;;;;;4.67;1.53;;;;;;;;;;5097578;28;20639;-59
2022/07/11 10:45:08;;;;;;;1.80;1.20;;;;;;;;;;5097690;28;20729;-58
2022/07/11 10:47:41;;;;;;;1.47;1.30;;;;;;;;;;5097798;28;20211;-58
2022/07/11 10:50:31;;;;;;;1.53;1.20;;;;;;;;;;5096890;28;20597;-58
2022/07/11 10:53:07;;;;;;;4.43;1.87;;;;;;;;;;5097680;28;20269;-57
2022/07/11 10:55:36;;;;;;;5.23;1.40;;;;;;;;;;5094702;28;20867;-58
2022/07/11 10:58:09;;;;;;;1.83;1.43;;;;;;;;;;5084216;28;20201;-57
2022/07/11 11:00:37;;;;;;;4.03;1.23;;;;;;;;;;5094773;28;20213;-59
2022/07/11 11:03:05;;;;;;;1.47;1.20;;;;;;;;;;5097468;28;20238;-59
2022/07/11 11:05:44;;;;;;;1.40;1.30;;;;;;;;;;5097324;28;20270;-59
2022/07/11 11:08:30;;;;;;;2.33;1.20;;;;;;;;;;5097394;28;20211;-59
2022/07/11 11:11:00;;;;;;;2.57;1.20;;;;;;;;;;5097477;28;20215;-59
2022/07/11 11:13:28;;;;;;;2.60;1.30;;;;;;;;;;5097212;28;20267;-59
2022/07/11 11:15:57;;;;;;;3.80;1.30;;;;;;;;;;5094245;28;20232;-60
2022/07/11 11:18:34;;;;;;;3.13;1.50;;;;;;;;;;5093937;28;20670;-60
2022/07/11 11:21:24;;;;;;;1.40;1.30;;;;;;;;;;5097491;28;20576;-61
2022/07/11 11:24:09;;;;;;;3.90;1.30;;;;;;;;;;5090537;28;20271;-58
2022/07/11 11:26:58;;;;;;;1.87;1.70;;;;;;;;;;5089120;28;20201;-60
2022/07/11 11:29:29;;;;;;;1.03;1.03;;;;;;;;;;5108653;28;20546;-58
2022/07/11 11:31:58;;;;;;;7.40;1.20;;;;;;;;;;5095511;28;20226;-58
2022/07/11 11:34:26;;;;;;;2.23;1.13;;;;;;;;;;5094796;28;20287;-58
2022/07/11 11:36:56;;;;;;;1.93;1.23;;;;;;;;;;5095483;28;20205;-58
2022/07/11 11:39:27;;;;;;;1.20;1.10;;;;;;;;;;5087652;28;20252;-58
2022/07/11 11:42:01;;;;;;;1.53;1.30;;;;;;;;;;5081270;28;20213;-58
2022/07/11 11:44:31;;;;;;;2.20;1.57;;;;;;;;;;5084365;28;20710;-58
2022/07/11 11:46:59;;;;;;;2.50;1.23;;;;;;;;;;5097143;28;20213;-59
2022/07/11 11:49:27;;;;;;;1.17;1.00;;;;;;;;;;5096681;28;20370;-59
2022/07/11 11:51:55;;;;;;;1.47;1.13;;;;;;;;;;5097035;28;20225;-59
2022/07/11 11:54:24;;;;;;;3.67;1.47;;;;;;;;;;5101630;28;20213;-59
2022/07/11 11:56:53;;;;;;;3.63;1.60;;;;;;;;;;5100464;28;20636;-59
2022/07/11 11:59:29;;;;;;;4.37;1.07;;;;;;;;;;5090817;28;20669;-59
2022/07/11 12:01:59;;;;;;;3.50;1.30;;;;;;;;;;5100846;28;20234;-60
2022/07/11 12:04:30;;;;;;;2.53;1.20;;;;;;;;;;5099634;28;20742;-60
2022/07/11 12:07:00;;;;;;;1.77;1.10;;;;;;;;;;5101706;28;20205;-60
2022/07/11 12:14:57;;;;;;;1.10;1.00;;;;;;;;;;5097926;28;20317;-60
2022/07/11 12:17:29;;;;;;;2.07;1.07;;;;;;;;;;5100790;28;20210;-60
2022/07/11 12:19:57;;;;;;;2.70;1.10;;;;;;;;;;5098545;28;20206;-60
2022/07/11 12:22:25;;;;;;;2.80;1.30;;;;;;;;;;5100007;28;20630;-60
2022/07/11 12:24:54;;;;;;;1.80;1.30;;;;;;;;;;5099951;28;20778;-60
2022/07/11 12:27:24;;;;;;;11.10;8.70;;;;;;;;;;5100289;28;20214;-60
2022/07/11 12:29:53;;;;;;;1.40;1.30;;;;;;;;;;5100528;28;20242;-60
2022/07/11 12:32:22;;;;;;;2.00;1.30;;;;;;;;;;5093432;28;20779;-59
2022/07/11 12:34:51;;;;;;;1.60;1.10;;;;;;;;;;5096149;28;20222;-60
2022/07/11 12:37:37;;;;;;;1.73;1.10;;;;;;;;;;5100363;28;20207;-60
2022/07/11 12:40:06;;;;;;;2.77;1.10;;;;;;;;;;5100092;28;20302;-59
2022/07/11 12:42:44;;;;;;;0.83;0.83;;;;;;;;;;5099904;28;20235;-59
2022/07/11 12:45:12;;;;;;;2.17;1.37;;;;;;;;;;5100204;28;20208;-60
2022/07/11 12:47:41;;;;;;;3.00;2.70;;;;;;;;;;5099828;28;20624;-59
2022/07/11 12:50:14;;;;;;;1.20;1.10;;;;;;;;;;5096101;28;20233;-59
2022/07/11 12:52:45;;;;;;;1.23;1.13;;;;;;;;;;5099972;28;20602;-60
2022/07/11 12:55:20;;;;;;;1.20;1.10;;;;;;;;;;5099772;28;20207;-59
2022/07/11 12:58:01;;;;;;;1.53;1.10;;;;;;;;;;5099822;28;20217;-60
2022/07/11 13:00:29;;;;;;;1.23;1.13;;;;;;;;;;5099490;28;20233;-59
2022/07/11 13:02:57;;;;;;;1.40;1.10;;;;;;;;;;5099618;28;20263;-60
2022/07/11 13:05:27;;;;;;;2.37;1.20;;;;;;;;;;5099274;28;20205;-60
2022/07/11 13:10:53;;;;;;;4.77;1.10;;;;;;;;;;5099267;28;20208;-60
2022/07/11 13:13:33;;;;;;;1.23;1.13;;;;;;;;;;5099508;28;20235;-60
2022/07/11 13:16:02;;;;;;;2.00;1.00;;;;;;;;;;5099677;28;20206;-60
2022/07/11 13:18:30;;;;;;;4.87;1.60;;;;;;;;;;5097309;28;20274;-60
2022/07/11 13:21:00;;;;;;;2.70;0.90;;;;;;;;;;5099254;28;20670;-60
2022/07/11 13:23:28;;;;;;;1.27;1.17;;;;;;;;;;5098681;28;20235;-60
2022/07/11 13:25:57;;;;;;;2.40;1.00;;;;;;;;;;5099304;28;20214;-60
2022/07/11 13:28:25;;;;;;;1.23;1.07;;;;;;;;;;5099027;28;20205;-60
2022/07/11 13:30:53;;;;;;;2.10;1.10;;;;;;;;;;5098989;28;20725;-60
2022/07/11 13:33:41;;;;;;;0.80;0.80;;;;;;;;;;5098774;28;20230;-59
2022/07/11 13:36:11;;;;;;;1.73;0.80;;;;;;;;;;5098683;28;20547;-60
2022/07/11 13:38:39;;;;;;;0.80;0.80;;;;;;;;;;5099088;28;20247;-59
2022/07/11 13:41:07;;;;;;;4.60;1.03;;;;;;;;;;5087051;28;20674;-60
2022/07/11 13:43:44;;;;;;;2.10;1.03;;;;;;;;;;5098162;28;20690;-59
2022/07/11 13:46:12;;;;;;;3.07;0.90;;;;;;;;;;5098751;28;20290;-60
2022/07/11 13:48:42;;;;;;;2.30;1.13;;;;;;;;;;5098394;28;20242;-60
2022/07/11 13:51:12;;;;;;;2.23;1.73;;;;;;;;;;5098000;28;20702;-59
2022/07/11 13:53:40;;;;;;;3.87;1.17;;;;;;;;;;5098148;28;20298;-59
2022/07/11 13:56:09;;;;;;;1.37;1.27;;;;;;;;;;5098419;28;20684;-59
2022/07/11 13:58:37;;;;;;;1.10;1.10;;;;;;;;;;5096868;28;20283;-59
2022/07/11 14:01:05;;;;;;;1.70;1.35;;;;;;;;;;5101113;28;20199;-59
2022/07/11 14:03:33;;;;;;;5.35;1.50;;;;;;;;;;5095075;28;20272;-59
2022/07/11 14:06:01;;;;;;;1.77;1.05;;;;;;;;;;5098858;28;20252;-60
2022/07/11 14:08:32;;;;;;;1.70;1.13;;;;;;;;;;5112095;28;20232;-59
2022/07/11 14:11:00;;;;;;;6.13;1.38;;;;;;;;;;5099929;28;20209;-59
2022/07/11 14:13:28;;;;;;;1.45;1.13;;;;;;;;;;5095424;28;20250;-59
2022/07/11 14:15:56;;;;;;;3.83;1.10;;;;;;;;;;5097527;28;20717;-59
2022/07/11 14:18:31;;;;;;;5.20;1.17;;;;;;;;;;5095458;28;20198;-59
2022/07/11 14:20:59;;;;;;;1.57;1.10;;;;;;;;;;5097371;28;20201;-59
2022/07/11 14:23:27;;;;;;;4.32;1.33;;;;;;;;;;5099693;28;20236;-60
2022/07/11 14:25:56;;;;;;;4.30;1.20;;;;;;;;;;5097433;28;20200;-59
2022/07/11 14:28:25;;;;;;;1.00;0.90;;;;;;;;;;5096189;28;20283;-60
2022/07/11 14:30:56;;;;;;;3.38;1.02;;;;;;;;;;5096851;28;20207;-60
2022/07/11 14:33:24;;;;;;;1.48;1.20;;;;;;;;;;5096521;28;20228;-60
2022/07/11 14:36:00;;;;;;;8.20;1.15;;;;;;;;;;5091323;28;20219;-59
2022/07/11 14:38:28;;;;;;;2.85;0.90;;;;;;;;;;5097877;28;20205;-60
2022/07/11 14:40:58;;;;;;;1.27;1.17;;;;;;;;;;5097345;28;20206;-60
2022/07/11 14:43:27;;;;;;;3.30;1.13;;;;;;;;;;5097470;28;20712;-59
2022/07/11 14:45:55;;;;;;;1.02;0.90;;;;;;;;;;5097154;28;20795;-60
2022/07/11 14:48:23;;;;;;;1.60;1.50;;;;;;;;;;5095789;28;20213;-60
2022/07/11 14:50:51;;;;;;;0.73;0.70;;;;;;;;;;5095764;28;20266;-60
2022/07/11 14:53:19;;;;;;;3.28;1.20;;;;;;;;;;5095718;28;20230;-60
2022/07/11 14:55:47;;;;;;;0.80;0.80;;;;;;;;;;5095446;28;20655;-59
2022/07/11 14:58:36;;;;;;;2.00;0.95;;;;;;;;;;5095661;28;20621;-59
2022/07/11 15:01:04;;;;;;;2.05;0.98;;;;;;;;;;5083322;28;20231;-60
2022/07/11 15:03:38;;;;;;;1.20;1.00;;;;;;;;;;5092073;28;20229;-60
2022/07/11 15:06:06;;;;;;;2.08;1.08;;;;;;;;;;5096213;28;20205;-60
2022/07/11 15:14:06;;;;;;;0.90;0.90;;;;;;;;;;5097283;28;20237;-59
2022/07/11 15:16:34;;;;;;;3.17;1.20;;;;;;;;;;5097629;28;20202;-59
2022/07/11 15:19:03;;;;;;;0.80;0.80;;;;;;;;;;5097415;28;20216;-59
2022/07/11 15:21:31;;;;;;;1.20;1.10;;;;;;;;;;5097476;28;20677;-59
2022/07/11 15:24:00;;;;;;;4.80;1.10;;;;;;;;;;5097137;28;20590;-59